Time;durP1;ratioP1;P1;durP2;ratioP2;P2;SDS_P1;SDS_P2;PMS_P1;PMS_P2;Temp;Humidity;BMP_temperature;BMP_pressure;BME280_temperature;BME280_humidity;BME280_pressure;Samples;Min_cycle;Max_cycle;Signal;HPM_P1;HPM_P2
2021/01/22 00:01:15;;;;;;;13.52;8.73;;;6.90;99.90;;;;;;5074562;28;20016;-69
2021/01/22 00:03:41;;;;;;;16.17;10.02;;;6.80;99.90;;;;;;5074544;28;20042;-68
2021/01/22 00:06:06;;;;;;;15.63;9.13;;;6.80;99.90;;;;;;5074974;28;20446;-70
2021/01/22 00:08:32;;;;;;;18.30;10.45;;;6.80;99.90;;;;;;5073939;28;20029;-70
2021/01/22 00:10:58;;;;;;;14.68;9.75;;;6.80;99.90;;;;;;5072377;28;20100;-70
2021/01/22 00:13:24;;;;;;;13.63;9.00;;;6.80;99.90;;;;;;5074631;28;20036;-69
2021/01/22 00:15:50;;;;;;;16.75;8.70;;;6.90;99.90;;;;;;5074751;28;20458;-70
2021/01/22 00:18:16;;;;;;;14.35;9.45;;;6.80;99.90;;;;;;5074712;28;20489;-71
2021/01/22 00:20:41;;;;;;;15.05;9.30;;;6.80;99.90;;;;;;5074728;28;20028;-70
2021/01/22 00:23:07;;;;;;;15.07;9.45;;;6.90;99.90;;;;;;5074144;28;20098;-70
2021/01/22 00:25:33;;;;;;;17.10;9.80;;;7.00;99.90;;;;;;5073935;28;20031;-68
2021/01/22 00:27:59;;;;;;;17.13;10.20;;;;;;;;;;5072618;28;20059;-71
2021/01/22 00:30:24;;;;;;;18.92;11.38;;;6.90;99.90;;;;;;5073569;28;20049;-69
2021/01/22 00:32:50;;;;;;;21.13;11.27;;;6.90;99.90;;;;;;5061307;28;20056;-69
2021/01/22 00:35:16;;;;;;;17.92;10.88;;;6.80;99.90;;;;;;5072809;28;20079;-70
2021/01/22 00:37:42;;;;;;;15.43;10.32;;;6.70;99.90;;;;;;5074410;28;20035;-71
2021/01/22 00:40:08;;;;;;;14.23;9.90;;;6.70;99.90;;;;;;5057989;28;20029;-71
2021/01/22 00:42:34;;;;;;;19.15;10.02;;;6.70;99.90;;;;;;5063022;28;20024;-71
2021/01/22 00:45:00;;;;;;;16.75;9.00;;;6.70;99.90;;;;;;5073815;28;20060;-70
2021/01/22 00:47:26;;;;;;;17.05;9.23;;;6.70;99.90;;;;;;5056577;28;20378;-71
2021/01/22 00:49:52;;;;;;;20.13;9.60;;;6.60;99.90;;;;;;5074529;28;20025;-70
2021/01/22 00:52:18;;;;;;;21.85;10.45;;;6.60;99.90;;;;;;5074987;28;20107;-71
2021/01/22 00:54:44;;;;;;;15.07;10.55;;;6.60;99.90;;;;;;5077985;28;20082;-69
2021/01/22 00:57:10;;;;;;;18.35;10.27;;;6.50;99.90;;;;;;5042254;28;20040;-70
2021/01/22 00:59:35;;;;;;;16.88;9.68;;;6.50;99.90;;;;;;5073996;28;20032;-71
2021/01/22 01:02:01;;;;;;;16.98;9.18;;;6.50;99.90;;;;;;5074142;28;20071;-70
2021/01/22 01:04:27;;;;;;;20.52;10.60;;;;;;;;;;5073776;28;20032;-72
2021/01/22 01:06:53;;;;;;;14.60;8.88;;;6.60;99.90;;;;;;5073598;28;20376;-69
2021/01/22 01:09:18;;;;;;;18.48;9.23;;;6.60;99.90;;;;;;5073949;28;20028;-71
2021/01/22 01:11:44;;;;;;;16.55;10.00;;;6.60;99.90;;;;;;5073510;28;20112;-70
2021/01/22 01:14:10;;;;;;;16.65;9.57;;;6.60;99.90;;;;;;5073967;28;20326;-68
2021/01/22 01:16:36;;;;;;;15.38;9.35;;;6.60;99.90;;;;;;5055546;28;20025;-69
2021/01/22 01:19:02;;;;;;;14.80;10.00;;;6.50;99.90;;;;;;5073394;28;20035;-69
2021/01/22 01:21:28;;;;;;;14.90;8.18;;;6.60;99.90;;;;;;5073732;28;20016;-69
2021/01/22 01:23:53;;;;;;;13.55;8.98;;;6.60;99.90;;;;;;5073516;28;20074;-70
2021/01/22 01:26:20;;;;;;;12.35;7.70;;;6.60;99.90;;;;;;5073182;28;20111;-70
2021/01/22 01:28:46;;;;;;;16.58;7.75;;;6.60;99.90;;;;;;5073481;28;20016;-69
2021/01/22 01:31:12;;;;;;;13.60;8.90;;;6.60;99.90;;;;;;5073797;28;20032;-69
2021/01/22 01:33:38;;;;;;;15.85;9.10;;;6.70;99.90;;;;;;5072956;28;20029;-69
2021/01/22 01:36:04;;;;;;;12.82;8.55;;;6.70;99.90;;;;;;5073768;28;20108;-70
2021/01/22 01:38:31;;;;;;;11.38;7.50;;;6.80;99.90;;;;;;5073265;28;20023;-70
2021/01/22 01:40:56;;;;;;;14.60;8.07;;;6.90;99.90;;;;;;5073214;28;20070;-69
2021/01/22 01:43:22;;;;;;;13.27;8.60;;;7.00;99.90;;;;;;5072925;28;20033;-70
2021/01/22 01:45:48;;;;;;;12.77;7.85;;;7.00;99.90;;;;;;5073132;28;20048;-70
2021/01/22 01:48:14;;;;;;;13.48;7.95;;;7.00;99.90;;;;;;5072946;28;20029;-70
2021/01/22 01:50:40;;;;;;;14.70;8.93;;;7.00;99.90;;;;;;5073028;28;20367;-69
2021/01/22 01:53:07;;;;;;;11.05;7.75;;;7.10;99.90;;;;;;5073500;28;20025;-69
2021/01/22 01:55:34;;;;;;;14.23;8.05;;;7.10;99.90;;;;;;5072853;28;20036;-69
2021/01/22 01:58:02;;;;;;;19.45;8.40;;;7.20;99.90;;;;;;5073098;28;20021;-68
2021/01/22 02:00:28;;;;;;;16.77;8.20;;;7.10;99.90;;;;;;5055316;28;20028;-71
2021/01/22 02:02:54;;;;;;;12.18;6.95;;;7.20;99.90;;;;;;5068862;28;20421;-70
2021/01/22 02:05:19;;;;;;;13.65;7.90;;;7.10;99.90;;;;;;5063436;28;20028;-70
2021/01/22 02:07:45;;;;;;;13.88;7.35;;;7.10;99.90;;;;;;5072800;28;20070;-70
2021/01/22 02:10:12;;;;;;;11.68;7.70;;;7.10;99.90;;;;;;5073536;28;20024;-70
2021/01/22 02:12:39;;;;;;;13.20;7.18;;;7.20;99.90;;;;;;5072965;28;20017;-71
2021/01/22 02:15:09;;;;;;;13.27;7.70;;;7.20;99.90;;;;;;5072529;28;20480;-70
2021/01/22 02:17:36;;;;;;;14.80;7.75;;;7.20;99.90;;;;;;5073307;28;20044;-69
2021/01/22 02:20:23;;;;;;;10.98;7.32;;;7.20;99.90;;;;;;5073065;28;20029;-69
2021/01/22 02:22:50;;;;;;;21.98;9.70;;;7.20;99.90;;;;;;5072732;28;20024;-69
2021/01/22 02:25:19;;;;;;;16.98;9.68;;;7.20;99.90;;;;;;5073387;28;20024;-70
2021/01/22 02:27:46;;;;;;;20.73;10.27;;;7.20;99.90;;;;;;5073396;28;20037;-69
2021/01/22 02:30:12;;;;;;;22.27;9.32;;;7.20;99.90;;;;;;5072396;28;20025;-70
2021/01/22 02:32:43;;;;;;;26.80;10.70;;;7.20;99.90;;;;;;5072807;28;20154;-71
2021/01/22 02:35:12;;;;;;;25.67;9.88;;;7.20;99.90;;;;;;5072943;28;20086;-70
2021/01/22 02:37:40;;;;;;;17.00;9.63;;;7.20;99.90;;;;;;5072740;28;20025;-70
2021/01/22 02:40:07;;;;;;;15.43;8.25;;;7.20;99.90;;;;;;5073171;28;20021;-71
2021/01/22 02:42:34;;;;;;;13.48;8.80;;;7.20;99.90;;;;;;5073233;28;20021;-72
2021/01/22 02:45:00;;;;;;;13.80;7.78;;;7.20;99.90;;;;;;5072519;28;20028;-71
2021/01/22 02:47:27;;;;;;;14.02;8.05;;;7.10;99.90;;;;;;5072628;28;20017;-71
2021/01/22 02:49:53;;;;;;;13.48;7.43;;;7.10;99.90;;;;;;5072585;28;20024;-70
2021/01/22 02:52:19;;;;;;;12.73;7.43;;;7.10;99.90;;;;;;5072786;28;20023;-70
2021/01/22 02:54:50;;;;;;;12.05;7.40;;;7.10;99.90;;;;;;5073944;28;20089;-71
2021/01/22 02:57:29;;;;;;;13.90;7.80;;;7.10;99.90;;;;;;5076274;28;20094;-70
2021/01/22 03:00:09;;;;;;;18.48;9.88;;;7.10;99.90;;;;;;5076720;28;20028;-71
2021/01/22 03:03:12;;;;;;;18.98;10.30;;;7.10;99.90;;;;;;5076176;28;20482;-69
2021/01/22 03:05:38;;;;;;;21.65;10.85;;;7.00;99.90;;;;;;5075946;28;20024;-70
2021/01/22 03:08:13;;;;;;;21.70;10.75;;;7.00;99.90;;;;;;5071774;28;20025;-70
2021/01/22 03:10:40;;;;;;;18.88;10.02;;;6.90;99.90;;;;;;5068280;28;20029;-70
2021/01/22 03:13:07;;;;;;;22.63;12.93;;;6.90;99.90;;;;;;5076408;28;20390;-70
2021/01/22 03:15:34;;;;;;;22.25;9.45;;;6.90;99.90;;;;;;5079308;28;20039;-70
2021/01/22 03:18:14;;;;;;;18.00;8.88;;;6.90;99.90;;;;;;5076472;28;20422;-70
2021/01/22 03:20:42;;;;;;;15.30;8.30;;;6.80;99.90;;;;;;5076312;28;20126;-69
2021/01/22 03:23:07;;;;;;;15.43;8.80;;;6.90;99.90;;;;;;5076199;28;20035;-70
2021/01/22 03:25:33;;;;;;;16.02;7.43;;;6.80;99.90;;;;;;5057925;28;20029;-70
2021/01/22 03:27:59;;;;;;;14.10;7.03;;;6.80;99.90;;;;;;5061675;28;20025;-70
2021/01/22 03:30:25;;;;;;;13.75;7.15;;;6.80;99.90;;;;;;5075996;28;20485;-71
2021/01/22 03:32:51;;;;;;;11.40;6.95;;;6.80;99.90;;;;;;5075564;28;20036;-71
2021/01/22 03:35:17;;;;;;;14.45;7.43;;;6.80;99.90;;;;;;5075793;28;20028;-69
2021/01/22 03:37:43;;;;;;;15.05;8.18;;;6.80;99.90;;;;;;5075968;28;20031;-69
2021/01/22 03:40:09;;;;;;;10.88;6.15;;;6.80;99.90;;;;;;5075218;28;20024;-72
2021/01/22 03:42:35;;;;;;;14.68;7.28;;;6.80;99.90;;;;;;5057854;28;20539;-71
2021/01/22 03:45:00;;;;;;;11.90;7.30;;;6.80;99.90;;;;;;5075803;28;20036;-70
2021/01/22 03:47:26;;;;;;;10.60;6.50;;;6.80;99.90;;;;;;5075224;28;20124;-70
2021/01/22 03:49:52;;;;;;;11.25;6.45;;;6.80;99.90;;;;;;5075738;28;20423;-70
2021/01/22 03:52:18;;;;;;;19.70;6.95;;;6.80;99.90;;;;;;5057525;28;20023;-71
2021/01/22 03:54:44;;;;;;;11.80;6.95;;;6.90;99.90;;;;;;5064499;28;20025;-71
2021/01/22 03:57:09;;;;;;;15.20;8.30;;;6.90;99.90;;;;;;5072237;28;20058;-70
2021/01/22 03:59:35;;;;;;;15.25;9.15;;;6.90;99.90;;;;;;5075283;28;20028;-70
2021/01/22 04:02:00;;;;;;;14.25;7.93;;;6.80;99.90;;;;;;5074801;28;20056;-71
2021/01/22 04:04:26;;;;;;;14.68;7.10;;;6.90;99.90;;;;;;5072633;28;20040;-69
2021/01/22 04:06:52;;;;;;;10.98;6.10;;;6.80;99.90;;;;;;5063421;28;20394;-71
2021/01/22 04:09:18;;;;;;;12.82;7.20;;;6.80;99.90;;;;;;5074960;28;20078;-71
2021/01/22 04:11:43;;;;;;;12.27;6.80;;;6.80;99.90;;;;;;5075323;28;20051;-71
2021/01/22 04:14:09;;;;;;;10.43;7.30;;;6.80;99.90;;;;;;5074607;28;20036;-70
2021/01/22 04:16:35;;;;;;;14.43;7.47;;;6.70;99.90;;;;;;5074811;28;20029;-69
2021/01/22 04:19:00;;;;;;;10.55;6.57;;;6.70;99.90;;;;;;5074985;28;20755;-69
2021/01/22 04:21:26;;;;;;;17.52;7.55;;;6.70;99.90;;;;;;5072326;28;20031;-69
2021/01/22 04:23:52;;;;;;;15.10;7.03;;;6.70;99.90;;;;;;5063566;28;20113;-70
2021/01/22 04:26:17;;;;;;;12.80;6.63;;;6.60;99.90;;;;;;5074961;28;20102;-70
2021/01/22 04:28:43;;;;;;;12.85;6.97;;;6.60;99.90;;;;;;5074646;28;20115;-71
2021/01/22 04:31:09;;;;;;;9.60;5.97;;;6.60;99.90;;;;;;5075001;28;20477;-71
2021/01/22 04:33:34;;;;;;;14.45;6.90;;;6.60;99.90;;;;;;5074528;28;20024;-71
2021/01/22 04:36:00;;;;;;;11.00;6.65;;;6.50;99.90;;;;;;5063624;28;20033;-69
2021/01/22 04:38:26;;;;;;;11.52;7.50;;;6.60;99.90;;;;;;5053448;28;20025;-69
2021/01/22 04:40:52;;;;;;;15.18;7.03;;;6.60;99.90;;;;;;5056774;28;20060;-69
2021/01/22 04:43:18;;;;;;;14.98;6.90;;;6.60;99.90;;;;;;5073423;28;20117;-70
2021/01/22 04:45:43;;;;;;;13.90;7.57;;;6.60;99.90;;;;;;5054619;28;20073;-71
2021/01/22 04:48:09;;;;;;;14.13;7.22;;;6.60;99.90;;;;;;5074578;28;20343;-69
2021/01/22 04:50:38;;;;;;;10.82;6.90;;;6.60;99.90;;;;;;5073780;28;20363;-71
2021/01/22 04:53:08;;;;;;;13.63;6.45;;;6.60;99.90;;;;;;5074014;28;20505;-70
2021/01/22 04:55:39;;;;;;;15.88;7.15;;;6.60;99.90;;;;;;5074179;28;20074;-70
2021/01/22 04:58:07;;;;;;;18.98;8.30;;;6.60;99.90;;;;;;5074287;28;20021;-69
2021/01/22 05:00:33;;;;;;;13.23;8.55;;;6.50;99.90;;;;;;5072538;28;20034;-71
2021/01/22 05:03:00;;;;;;;18.13;10.88;;;6.50;99.90;;;;;;5072749;28;20075;-71
2021/01/22 05:05:25;;;;;;;44.55;17.85;;;6.50;99.90;;;;;;5073004;28;20086;-70
2021/01/22 05:07:51;;;;;;;38.30;16.27;;;6.50;99.90;;;;;;5073547;28;20271;-68
2021/01/22 05:10:17;;;;;;;31.00;15.48;;;6.40;99.90;;;;;;5072063;28;20074;-70
2021/01/22 05:12:43;;;;;;;41.00;17.50;;;6.50;99.90;;;;;;5073484;28;20035;-71
2021/01/22 05:15:19;;;;;;;40.58;20.02;;;6.50;99.90;;;;;;5073952;28;20417;-71
2021/01/22 05:18:02;;;;;;;38.45;18.35;;;6.50;99.90;;;;;;5072763;28;20040;-72
2021/01/22 05:20:36;;;;;;;45.85;21.58;;;6.40;99.90;;;;;;5073615;28;20541;-71
2021/01/22 05:23:05;;;;;;;40.85;19.80;;;6.40;99.90;;;;;;5074038;28;20049;-70
2021/01/22 05:25:31;;;;;;;57.60;21.00;;;6.40;99.90;;;;;;5072524;28;20070;-68
2021/01/22 05:27:58;;;;;;;43.55;19.33;;;6.40;99.90;;;;;;5054288;28;20395;-70
2021/01/22 05:30:26;;;;;;;55.85;20.45;;;6.30;99.90;;;;;;5072562;28;20061;-70
2021/01/22 05:32:53;;;;;;;55.85;23.73;;;6.30;99.90;;;;;;5054547;28;20040;-70
2021/01/22 05:35:29;;;;;;;42.22;17.85;;;6.30;99.90;;;;;;5074355;28;20086;-70
2021/01/22 05:37:55;;;;;;;53.25;21.05;;;6.30;99.90;;;;;;5046602;28;20033;-70
2021/01/22 05:40:21;;;;;;;34.75;15.57;;;6.40;99.90;;;;;;5071782;28;20029;-70
2021/01/22 05:42:55;;;;;;;40.97;18.25;;;6.40;99.90;;;;;;5055565;28;20025;-68
2021/01/22 05:45:38;;;;;;;46.20;18.98;;;6.40;99.90;;;;;;5073004;28;20031;-70
2021/01/22 05:48:05;;;;;;;44.67;18.05;;;6.40;99.90;;;;;;5073082;28;20112;-74
2021/01/22 05:50:47;;;;;;;32.08;14.23;;;6.40;99.90;;;;;;5073335;28;20024;-69
2021/01/22 05:53:14;;;;;;;36.35;13.25;;;6.40;99.90;;;;;;5072266;28;20035;-69
2021/01/22 05:55:40;;;;;;;32.00;13.55;;;6.50;99.90;;;;;;5070983;28;20036;-68
2021/01/22 05:58:06;;;;;;;19.90;9.65;;;6.50;99.90;;;;;;5072184;28;20032;-70
2021/01/22 06:00:32;;;;;;;13.63;8.32;;;6.50;99.90;;;;;;5041790;28;20029;-70
2021/01/22 06:02:57;;;;;;;16.02;8.10;;;6.60;99.90;;;;;;5073479;28;20024;-68
2021/01/22 06:05:23;;;;;;;15.02;8.35;;;6.70;99.90;;;;;;5073348;28;20028;-69
2021/01/22 06:08:08;;;;;;;16.73;9.07;;;6.70;99.90;;;;;;5072167;28;20466;-69
2021/01/22 06:10:39;;;;;;;18.70;7.78;;;6.80;99.90;;;;;;5072170;28;20027;-69
2021/01/22 06:13:09;;;;;;;18.95;8.50;;;6.80;99.90;;;;;;5073137;28;20029;-69
2021/01/22 06:15:35;;;;;;;15.27;9.00;;;6.80;99.90;;;;;;5055221;28;20115;-69
2021/01/22 06:18:02;;;;;;;22.77;8.77;;;7.00;99.90;;;;;;5067345;28;20048;-69
2021/01/22 06:20:29;;;;;;;16.83;8.10;;;6.90;99.90;;;;;;5092985;28;20032;-69
2021/01/22 06:23:03;;;;;;;10.93;5.88;;;6.90;99.90;;;;;;5093198;28;20047;-69
2021/01/22 06:25:30;;;;;;;9.93;6.28;;;7.00;99.90;;;;;;5093413;28;20459;-69
2021/01/22 06:27:58;;;;;;;11.80;7.55;;;7.10;99.90;;;;;;5092551;28;20119;-69
2021/01/22 06:30:25;;;;;;;11.90;5.90;;;7.10;99.90;;;;;;5095529;28;20028;-70
2021/01/22 06:32:51;;;;;;;9.73;6.90;;;7.20;99.90;;;;;;5097146;28;20105;-69
2021/01/22 06:35:18;;;;;;;12.95;5.80;;;7.20;99.90;;;;;;5096871;28;20493;-70
2021/01/22 06:37:43;;;;;;;14.18;6.32;;;7.30;99.90;;;;;;5097295;28;20107;-70
2021/01/22 06:40:10;;;;;;;10.15;6.53;;;7.30;99.90;;;;;;5076308;28;20103;-70
2021/01/22 06:42:39;;;;;;;14.20;6.45;;;7.30;99.90;;;;;;5067574;28;20024;-70
2021/01/22 06:45:05;;;;;;;10.60;6.20;;;7.40;99.90;;;;;;5096766;28;20032;-70
2021/01/22 06:47:31;;;;;;;13.07;7.15;;;7.40;99.90;;;;;;5097585;28;20505;-70
2021/01/22 06:49:57;;;;;;;17.70;8.60;;;7.40;99.90;;;;;;5096817;28;20028;-69
2021/01/22 06:52:23;;;;;;;10.60;6.65;;;7.40;99.90;;;;;;5078807;28;20028;-68
2021/01/22 06:55:02;;;;;;;14.45;8.18;;;7.50;99.90;;;;;;5096525;28;20032;-68
2021/01/22 06:57:28;;;;;;;13.63;7.85;;;7.50;99.90;;;;;;5096789;28;20490;-70
2021/01/22 06:59:54;;;;;;;14.52;7.22;;;7.50;99.90;;;;;;5078654;28;20028;-69
2021/01/22 07:02:32;;;;;;;14.13;7.93;;;7.50;99.90;;;;;;5078149;28;20073;-70
2021/01/22 07:04:58;;;;;;;13.43;7.63;;;7.50;99.90;;;;;;5083375;28;20496;-69
2021/01/22 07:07:49;;;;;;;15.75;9.35;;;7.50;99.90;;;;;;5096696;28;20027;-70
2021/01/22 07:10:15;;;;;;;14.00;7.60;;;7.50;99.90;;;;;;5084714;28;20073;-69
2021/01/22 07:12:42;;;;;;;15.05;9.02;;;7.40;99.90;;;;;;5095705;28;20027;-70
2021/01/22 07:15:20;;;;;;;17.52;8.15;;;7.40;99.90;;;;;;5092116;28;20075;-70
2021/01/22 07:17:49;;;;;;;18.38;8.43;;;7.40;99.90;;;;;;5083870;28;20050;-70
2021/01/22 07:20:15;;;;;;;16.17;8.88;;;7.30;99.90;;;;;;5071856;28;20016;-70
2021/01/22 07:23:01;;;;;;;15.68;9.27;;;7.30;99.90;;;;;;5046876;28;20027;-70
2021/01/22 07:25:35;;;;;;;19.85;10.00;;;7.20;99.90;;;;;;5070798;28;20036;-72
2021/01/22 07:28:15;;;;;;;22.90;9.85;;;7.30;99.90;;;;;;5071362;28;20027;-70
2021/01/22 07:30:42;;;;;;;17.00;9.45;;;7.30;99.90;;;;;;5072371;28;20410;-69
2021/01/22 07:33:26;;;;;;;18.85;9.15;;;7.20;99.90;;;;;;5068909;28;20029;-71
2021/01/22 07:36:14;;;;;;;16.90;10.88;;;7.30;99.90;;;;;;5068669;28;20063;-70
2021/01/22 07:38:41;;;;;;;17.45;9.77;;;7.40;99.90;;;;;;5054905;28;20013;-72
2021/01/22 07:41:11;;;;;;;22.38;9.93;;;7.40;99.90;;;;;;5073736;28;20028;-71
2021/01/22 07:43:37;;;;;;;18.70;10.15;;;7.50;99.90;;;;;;5070530;28;20032;-72
2021/01/22 07:46:10;;;;;;;24.10;10.02;;;7.60;99.90;;;;;;5072739;28;20086;-70
2021/01/22 07:48:39;;;;;;;16.95;9.90;;;7.60;99.90;;;;;;5073823;28;20021;-68
2021/01/22 07:51:34;;;;;;;16.13;9.45;;;7.60;99.90;;;;;;5056751;28;20029;-70
2021/01/22 07:54:01;;;;;;;19.98;9.98;;;7.60;99.90;;;;;;5054805;28;20036;-70
2021/01/22 07:56:34;;;;;;;13.95;7.97;;;7.60;99.90;;;;;;5075553;28;20104;-68
2021/01/22 07:59:01;;;;;;;17.30;7.95;;;7.60;99.90;;;;;;5073174;28;20030;-68
2021/01/22 08:01:26;;;;;;;18.40;8.27;;;7.70;99.90;;;;;;5073397;28;20099;-70
2021/01/22 08:03:52;;;;;;;14.27;8.15;;;7.70;99.90;;;;;;5073673;28;20082;-71
2021/01/22 08:06:18;;;;;;;13.65;8.82;;;7.80;99.90;;;;;;5053691;28;20021;-69
2021/01/22 08:08:44;;;;;;;11.23;6.68;;;7.80;99.90;;;;;;5072915;28;20082;-70
2021/01/22 08:11:20;;;;;;;13.27;7.30;;;7.90;99.90;;;;;;5070043;28;20033;-69
2021/01/22 08:13:46;;;;;;;12.57;7.15;;;8.10;99.90;;;;;;5067358;28;20032;-69
2021/01/22 08:16:13;;;;;;;11.90;7.07;;;8.20;99.90;;;;;;5072283;28;20026;-72
2021/01/22 08:18:45;;;;;;;12.48;8.00;;;8.30;99.90;;;;;;5074066;28;20076;-69
2021/01/22 08:21:11;;;;;;;12.10;6.10;;;8.30;99.90;;;;;;5068287;28;20052;-69
2021/01/22 08:23:42;;;;;;;10.95;7.07;;;8.40;99.90;;;;;;5070780;28;20052;-70
2021/01/22 08:26:09;;;;;;;14.57;6.80;;;8.50;99.90;;;;;;5071473;28;20033;-70
2021/01/22 08:28:36;;;;;;;11.57;6.03;;;8.60;99.90;;;;;;5063335;28;20466;-72
2021/01/22 08:31:02;;;;;;;10.25;6.60;;;8.70;99.90;;;;;;5072949;28;20028;-73
2021/01/22 08:33:28;;;;;;;11.23;6.60;;;8.80;99.90;;;;;;5045565;28;20049;-71
2021/01/22 08:35:56;;;;;;;11.25;6.68;;;8.80;99.90;;;;;;5065763;28;20074;-71
2021/01/22 08:38:24;;;;;;;15.85;7.20;;;8.90;99.90;;;;;;5072816;28;20107;-71
2021/01/22 08:40:49;;;;;;;9.27;5.63;;;8.90;99.90;;;;;;5073979;28;20366;-71
2021/01/22 08:43:16;;;;;;;14.00;6.70;;;9.00;99.90;;;;;;5071443;28;20025;-70
2021/01/22 08:46:12;;;;;;;10.20;6.63;;;9.10;99.90;;;;;;5073677;28;20165;-71
2021/01/22 08:48:38;;;;;;;12.30;5.95;;;9.20;99.90;;;;;;5073684;28;20020;-71
2021/01/22 08:51:05;;;;;;;11.50;6.15;;;9.40;99.90;;;;;;5072666;28;20021;-70
2021/01/22 08:53:31;;;;;;;12.45;6.68;;;;;;;;;;5072842;28;20021;-70
2021/01/22 08:56:14;;;;;;;13.57;7.97;;;9.80;99.90;;;;;;5073569;28;20028;-71
2021/01/22 08:58:58;;;;;;;17.90;8.05;;;10.00;99.90;;;;;;5066653;28;20032;-71
2021/01/22 09:01:52;;;;;;;16.40;7.95;;;10.20;99.90;;;;;;5064107;28;20029;-71
2021/01/22 09:04:28;;;;;;;13.27;7.68;;;10.40;99.90;;;;;;5063382;28;20031;-70
2021/01/22 09:06:58;;;;;;;16.58;8.35;;;10.50;99.90;;;;;;5064585;28;20067;-72
2021/01/22 09:09:44;;;;;;;21.25;8.73;;;10.50;99.90;;;;;;5072257;28;20073;-72
2021/01/22 09:12:37;;;;;;;11.75;6.60;;;10.60;99.90;;;;;;5063840;28;20024;-71
2021/01/22 09:15:05;;;;;;;23.77;8.00;;;10.80;99.90;;;;;;5070129;28;20044;-71
2021/01/22 09:17:45;;;;;;;12.70;6.85;;;10.90;99.90;;;;;;5073242;28;20127;-72
2021/01/22 09:20:20;;;;;;;11.15;6.60;;;10.90;99.90;;;;;;5067461;28;20024;-71
2021/01/22 09:22:48;;;;;;;14.13;6.75;;;10.90;99.90;;;;;;5072218;28;20111;-70
2021/01/22 09:25:26;;;;;;;10.48;5.95;;;10.90;99.90;;;;;;5051885;28;20086;-72
2021/01/22 09:27:52;;;;;;;9.55;5.97;;;10.80;99.90;;;;;;5070925;28;20058;-70
2021/01/22 09:30:20;;;;;;;14.25;6.40;;;10.80;99.90;;;;;;5055511;28;20382;-70
2021/01/22 09:32:51;;;;;;;23.50;6.35;;;10.90;99.90;;;;;;5050472;28;20027;-72
2021/01/22 09:35:19;;;;;;;11.20;6.97;;;10.90;99.90;;;;;;5072456;28;20112;-73
2021/01/22 09:37:44;;;;;;;11.55;4.90;;;10.90;99.90;;;;;;5054345;28;20024;-71
2021/01/22 09:40:11;;;;;;;8.75;5.38;;;11.00;99.90;;;;;;5070797;28;20028;-71
2021/01/22 09:42:37;;;;;;;10.23;6.10;;;11.00;99.90;;;;;;5071468;28;20035;-71
2021/01/22 09:45:08;;;;;;;12.85;6.30;;;11.10;99.90;;;;;;5072667;28;20039;-71
2021/01/22 09:47:34;;;;;;;12.77;5.72;;;11.10;99.90;;;;;;5072553;28;20032;-71
2021/01/22 09:50:00;;;;;;;13.05;6.15;;;11.20;99.90;;;;;;5071109;28;20016;-76
2021/01/22 09:52:26;;;;;;;10.15;5.40;;;11.20;99.90;;;;;;5041051;28;20032;-70
2021/01/22 09:54:52;;;;;;;11.63;5.82;;;11.30;99.90;;;;;;5072881;28;20575;-71
2021/01/22 09:57:18;;;;;;;7.97;4.88;;;11.30;99.90;;;;;;5072956;28;20020;-71
2021/01/22 09:59:44;;;;;;;9.32;5.72;;;11.30;99.90;;;;;;5055080;28;20047;-71
2021/01/22 10:02:09;;;;;;;8.85;5.50;;;11.30;99.90;;;;;;5069787;28;20379;-71
2021/01/22 10:04:36;;;;;;;12.18;4.97;;;11.30;99.90;;;;;;5072334;28;20024;-70
2021/01/22 10:07:03;;;;;;;11.48;5.13;;;11.40;99.90;;;;;;5073079;28;20033;-71
2021/01/22 10:09:29;;;;;;;9.30;5.75;;;;;;;;;;5070878;28;20482;-72
2021/01/22 10:11:55;;;;;;;9.80;5.05;;;;;;;;;;5070983;28;20016;-71
2021/01/22 10:14:21;;;;;;;7.97;5.18;;;;;;;;;;5054336;28;20028;-71
2021/01/22 10:16:47;;;;;;;7.38;4.43;;;;;;;;;;5074374;28;20020;-71
2021/01/22 10:19:13;;;;;;;6.05;3.83;;;;;;;;;;5050964;28;20033;-71
2021/01/22 10:21:39;;;;;;;8.65;4.40;;;;;;;;;;5060270;28;20016;-70
2021/01/22 10:24:05;;;;;;;7.75;4.90;;;;;;;;;;5072563;28;20108;-77
2021/01/22 10:26:32;;;;;;;10.02;5.07;;;;;;;;;;5071810;28;20021;-72
2021/01/22 10:28:58;;;;;;;9.23;4.95;;;;;;;;;;5071545;28;20036;-73
2021/01/22 10:31:24;;;;;;;10.10;5.28;;;;;;;;;;5071409;28;20099;-72
2021/01/22 10:33:50;;;;;;;10.93;5.13;;;11.50;99.90;;;;;;5069351;28;20047;-74
2021/01/22 10:36:16;;;;;;;7.07;4.15;;;11.50;99.90;;;;;;5050668;28;20463;-74
2021/01/22 10:38:42;;;;;;;7.75;5.07;;;11.50;99.90;;;;;;5069972;28;20618;-71
2021/01/22 10:41:09;;;;;;;9.00;5.10;;;11.50;99.90;;;;;;5071460;28;20032;-72
2021/01/22 10:43:35;;;;;;;11.38;4.43;;;11.40;99.90;;;;;;5052522;28;20051;-72
2021/01/22 10:46:01;;;;;;;8.23;4.90;;;11.40;99.90;;;;;;5068773;28;20021;-75
2021/01/22 10:48:27;;;;;;;9.50;4.93;;;11.40;99.90;;;;;;5053591;28;20542;-74
2021/01/22 10:50:54;;;;;;;6.15;4.13;;;11.50;99.90;;;;;;5072165;28;20028;-73
2021/01/22 10:53:20;;;;;;;7.65;4.45;;;11.40;99.90;;;;;;5070542;28;20110;-75
2021/01/22 10:55:47;;;;;;;6.55;4.50;;;11.30;99.90;;;;;;5052475;28;20033;-71
2021/01/22 10:58:12;;;;;;;8.23;4.82;;;11.30;99.90;;;;;;5070084;28;20032;-72
2021/01/22 11:00:39;;;;;;;7.05;4.00;;;11.30;99.90;;;;;;5070014;28;20035;-72
2021/01/22 11:03:05;;;;;;;7.95;4.35;;;11.40;99.90;;;;;;5070018;28;20066;-73
2021/01/22 11:05:32;;;;;;;7.72;3.17;;;11.40;99.90;;;;;;5048152;28;20121;-74
2021/01/22 11:08:03;;;;;;;8.88;4.50;;;11.50;99.90;;;;;;5068254;28;20378;-75
2021/01/22 11:10:29;;;;;;;13.32;4.65;;;11.50;99.90;;;;;;5070617;28;20109;-72
2021/01/22 11:12:58;;;;;;;14.02;5.72;;;11.70;99.90;;;;;;5070485;28;20469;-76
2021/01/22 11:15:24;;;;;;;8.98;5.25;;;11.70;99.90;;;;;;5070310;28;20040;-71
2021/01/22 11:17:49;;;;;;;7.68;4.35;;;11.80;99.90;;;;;;5073504;28;20041;-70
2021/01/22 11:20:17;;;;;;;8.05;4.25;;;11.80;99.90;;;;;;5073848;28;20026;-73
2021/01/22 11:22:46;;;;;;;8.77;4.88;;;11.80;99.90;;;;;;5073171;28;20031;-74
2021/01/22 11:25:16;;;;;;;6.97;4.15;;;11.80;99.90;;;;;;5056530;28;20021;-76
2021/01/22 11:27:43;;;;;;;8.93;4.88;;;11.90;99.90;;;;;;5051301;28;20030;-78
2021/01/22 11:30:13;;;;;;;8.57;4.55;;;11.90;99.90;;;;;;5060729;28;20105;-73
2021/01/22 11:32:38;;;;;;;7.35;4.70;;;12.00;99.90;;;;;;5067522;28;20107;-73
2021/01/22 11:35:05;;;;;;;11.45;5.85;;;12.00;99.90;;;;;;5069641;28;20052;-73
2021/01/22 11:37:32;;;;;;;10.57;4.70;;;;;;;;;;5074180;28;20099;-72
2021/01/22 11:40:03;;;;;;;9.93;5.70;;;;;;;;;;5065615;28;20412;-73
2021/01/22 11:42:34;;;;;;;9.95;5.55;;;;;;;;;;5068699;28;20052;-72
2021/01/22 11:45:02;;;;;;;11.07;5.40;;;;;;;;;;5054316;28;20413;-72
2021/01/22 11:47:34;;;;;;;11.52;5.80;;;;;;;;;;5053008;28;20433;-71
2021/01/22 11:50:00;;;;;;;9.00;5.40;;;;;;;;;;5067579;28;20023;-72
2021/01/22 11:52:28;;;;;;;7.22;5.18;;;;;;;;;;5069297;28;20150;-73
2021/01/22 11:54:56;;;;;;;10.43;6.20;;;;;;;;;;5074311;28;20476;-73
2021/01/22 11:57:24;;;;;;;9.82;5.93;;;;;;;;;;5073988;28;20028;-71
2021/01/22 11:59:52;;;;;;;11.77;6.72;;;;;;;;;;5055586;28;20029;-72
2021/01/22 12:02:21;;;;;;;10.48;6.25;;;;;;;;;;5073579;28;20047;-72
2021/01/22 12:04:49;;;;;;;9.38;6.10;;;;;;;;;;5072517;28;20032;-71
2021/01/22 12:07:18;;;;;;;10.48;6.03;;;;;;;;;;5055838;28;20059;-76
2021/01/22 12:09:45;;;;;;;15.20;6.70;;;;;;;;;;5056098;28;20048;-74
2021/01/22 12:12:12;;;;;;;9.48;5.90;;;;;;;;;;5074180;28;20030;-70
2021/01/22 12:14:40;;;;;;;12.00;6.53;;;12.00;99.90;;;;;;5041394;28;20113;-73
2021/01/22 12:17:08;;;;;;;10.57;6.70;;;;;;;;;;5056355;28;20083;-72
2021/01/22 12:19:38;;;;;;;15.85;8.75;;;;;;;;;;5074530;28;20028;-70
2021/01/22 12:22:07;;;;;;;9.52;6.47;;;;;;;;;;5072837;28;20484;-72
2021/01/22 12:24:36;;;;;;;16.25;7.03;;;;;;;;;;5073896;28;20477;-70
2021/01/22 12:27:05;;;;;;;9.23;5.88;;;;;;;;;;5074287;28;20019;-74
2021/01/22 12:29:34;;;;;;;10.93;7.60;;;;;;;;;;5061019;28;20086;-72
2021/01/22 12:32:02;;;;;;;12.15;7.68;;;;;;;;;;5067630;28;20040;-74
2021/01/22 12:34:31;;;;;;;11.60;5.93;;;;;;;;;;5067045;28;20035;-72
2021/01/22 12:37:00;;;;;;;15.85;7.10;;;;;;;;;;5082055;28;20043;-72
2021/01/22 12:39:29;;;;;;;8.82;6.40;;;;;;;;;;5064648;28;20075;-74
2021/01/22 12:41:58;;;;;;;13.98;7.85;;;;;;;;;;5071131;28;20027;-73
2021/01/22 12:44:29;;;;;;;15.50;7.53;;;;;;;;;;5072268;28;20029;-73
2021/01/22 12:46:59;;;;;;;12.02;7.10;;;;;;;;;;5069730;28;20032;-73
2021/01/22 12:49:28;;;;;;;21.77;6.53;;;;;;;;;;5053637;28;20044;-72
2021/01/22 12:51:57;;;;;;;12.63;7.55;;;;;;;;;;5068081;28;20478;-72
2021/01/22 12:54:25;;;;;;;15.18;7.03;;;;;;;;;;5073248;28;20016;-73
2021/01/22 12:56:56;;;;;;;18.00;9.30;;;;;;;;;;5073871;28;20058;-73
2021/01/22 12:59:24;;;;;;;15.57;8.98;;;;;;;;;;5072704;28;20032;-73
2021/01/22 13:01:52;;;;;;;16.23;8.23;;;;;;;;;;5073592;28;20027;-75
2021/01/22 13:04:18;;;;;;;17.45;8.52;;;;;;;;;;5073121;28;20029;-74
2021/01/22 13:06:44;;;;;;;21.45;9.93;;;;;;;;;;5065336;28;20037;-72